Time;durP1;ratioP1;P1;durP2;ratioP2;P2;SDS_P1;SDS_P2;PMS_P1;PMS_P2;Temp;Humidity;BMP_temperature;BMP_pressure;BME280_temperature;BME280_humidity;BME280_pressure;Samples;Min_cycle;Max_cycle;Signal;HPM_P1;HPM_P2
2022/01/29 00:00:13;;;;;;;9.70;4.18;;;7.00;99.90;;;6.90;83.70;102477.59;5204792;28;20047;-72
2022/01/29 00:02:46;;;;;;;7.93;3.08;;;7.00;99.90;;;6.90;83.16;102472.41;5204815;28;20056;-72
2022/01/29 00:05:18;;;;;;;10.77;3.88;;;7.00;99.90;;;6.91;83.43;102468.13;5204576;28;20554;-73
2022/01/29 00:07:50;;;;;;;7.57;3.40;;;7.00;99.90;;;6.91;83.26;102468.13;5204732;28;20490;-72
2022/01/29 00:10:22;;;;;;;7.38;3.35;;;7.00;99.90;;;6.89;83.04;102469.72;5204602;28;20145;-73
2022/01/29 00:12:54;;;;;;;10.95;4.65;;;7.00;99.90;;;6.90;83.81;102466.31;5208771;28;20056;-72
2022/01/29 00:15:26;;;;;;;7.60;3.70;;;7.00;99.90;;;6.90;83.52;102466.31;5208448;28;20138;-73
2022/01/29 00:18:00;;;;;;;10.40;3.90;;;7.00;99.90;;;6.93;83.57;102462.28;5208696;28;20136;-73
2022/01/29 00:20:32;;;;;;;5.38;3.10;;;7.00;99.90;;;6.93;83.77;102466.56;5208707;28;20050;-72
2022/01/29 00:23:04;;;;;;;12.43;4.28;;;7.00;99.90;;;6.91;83.64;102458.69;5207761;28;20508;-71
2022/01/29 00:25:36;;;;;;;10.68;4.40;;;7.00;99.90;;;6.91;83.85;102455.16;5207778;28;20045;-72
2022/01/29 00:28:08;;;;;;;12.60;4.40;;;7.00;99.90;;;6.94;84.34;102460.59;5207699;28;20043;-72
2022/01/29 00:30:42;;;;;;;5.72;2.92;;;7.00;99.90;;;6.94;84.14;102448.53;5207272;28;20045;-73
2022/01/29 00:33:15;;;;;;;6.43;2.85;;;7.00;99.90;;;6.93;84.25;102446.72;5207921;28;20490;-72
2022/01/29 00:35:47;;;;;;;11.27;4.80;;;7.00;99.90;;;6.95;83.95;102449.44;5206193;28;20056;-72
2022/01/29 00:38:19;;;;;;;8.52;3.75;;;7.00;99.90;;;6.95;84.02;102444.25;5207351;28;20046;-73
2022/01/29 00:40:51;;;;;;;8.93;4.03;;;7.00;99.90;;;7.01;84.01;102455.09;5207335;28;20409;-72
2022/01/29 00:43:24;;;;;;;12.75;4.38;;;7.00;99.90;;;7.00;83.54;102448.09;5207044;28;20069;-72
2022/01/29 00:45:56;;;;;;;8.88;4.32;;;7.00;99.90;;;6.97;83.92;102438.38;5205240;28;20052;-72
2022/01/29 00:48:30;;;;;;;8.73;3.60;;;7.00;99.90;;;6.99;83.95;102435.94;5206793;28;20051;-72
2022/01/29 00:51:02;;;;;;;9.50;4.30;;;7.00;99.90;;;7.00;83.80;102437.72;5206787;28;20136;-73
2022/01/29 00:53:34;;;;;;;14.13;5.03;;;7.00;99.90;;;7.00;84.23;102435.13;5207339;28;20045;-74
2022/01/29 00:56:07;;;;;;;11.50;4.60;;;7.10;99.90;;;7.00;84.21;102429.94;5206835;28;20554;-72
2022/01/29 00:58:40;;;;;;;9.90;4.25;;;7.10;99.90;;;7.01;84.07;102435.25;5206132;28;20468;-72
2022/01/29 01:01:12;;;;;;;14.82;4.97;;;7.10;99.90;;;7.01;83.86;102432.66;5206344;28;20060;-72
2022/01/29 01:03:46;;;;;;;13.45;4.55;;;7.10;99.90;;;7.01;84.46;102434.34;5205924;28;20053;-72
2022/01/29 01:06:18;;;;;;;10.00;4.55;;;7.00;99.90;;;7.01;84.18;102430.06;5206396;28;20136;-72
2022/01/29 01:08:50;;;;;;;10.93;3.95;;;7.00;99.90;;;7.02;84.60;102436.13;5207655;28;20053;-72
2022/01/29 01:11:22;;;;;;;12.93;4.25;;;7.00;99.90;;;7.01;84.36;102431.75;5206833;28;20045;-73
2022/01/29 01:13:54;;;;;;;12.50;4.20;;;7.00;99.90;;;7.01;84.52;102429.16;5205320;28;20132;-73
2022/01/29 01:16:26;;;;;;;11.70;4.28;;;7.00;99.90;;;7.02;84.54;102431.84;5206297;28;20055;-73
2022/01/29 01:19:00;;;;;;;9.68;3.97;;;7.00;99.90;;;7.03;84.57;102422.38;5206796;28;20056;-73
2022/01/29 01:21:32;;;;;;;10.05;3.65;;;7.10;99.90;;;7.03;85.25;102423.28;5206965;28;20395;-73
2022/01/29 01:24:05;;;;;;;12.25;4.72;;;7.10;99.90;;;7.05;84.41;102426.03;5205353;28;20067;-73
2022/01/29 01:26:37;;;;;;;10.82;4.20;;;7.10;99.90;;;7.05;84.76;102420.84;5207646;28;20053;-73
2022/01/29 01:29:09;;;;;;;11.13;4.38;;;7.10;99.90;;;7.08;85.25;102415.84;5207058;28;20133;-73
2022/01/29 01:31:44;;;;;;;8.98;3.60;;;7.10;99.90;;;7.08;84.58;102406.38;5206962;28;20437;-73
2022/01/29 01:34:20;;;;;;;10.93;4.55;;;7.10;99.90;;;7.11;84.81;102403.13;5205903;28;20051;-72
2022/01/29 01:36:56;;;;;;;11.77;5.22;;;7.10;99.90;;;7.10;84.98;102403.91;5205666;28;20069;-73
2022/01/29 01:39:32;;;;;;;12.18;4.30;;;7.10;99.90;;;7.12;84.89;102407.53;5207047;28;20635;-72
2022/01/29 01:42:06;;;;;;;12.38;4.95;;;7.20;99.90;;;7.14;85.07;102405.94;5207066;28;20727;-73
2022/01/29 01:44:43;;;;;;;11.77;4.70;;;7.20;99.90;;;7.14;84.93;102405.94;5201563;28;20334;-72
2022/01/29 01:47:17;;;;;;;9.02;3.80;;;7.20;99.90;;;7.16;85.09;102399.16;5206426;28;20073;-75
2022/01/29 01:49:51;;;;;;;10.43;3.83;;;7.20;99.90;;;7.17;85.23;102393.22;5206123;28;20056;-73
2022/01/29 01:52:23;;;;;;;13.18;4.47;;;7.20;99.90;;;7.19;85.10;102388.13;5205754;28;20054;-72
2022/01/29 01:54:55;;;;;;;13.25;4.63;;;7.20;99.90;;;7.19;84.96;102389.03;5207019;28;20088;-72
2022/01/29 01:57:27;;;;;;;11.07;4.60;;;7.20;99.90;;;7.20;85.12;102379.56;5207143;28;20072;-72
2022/01/29 01:59:59;;;;;;;11.13;4.70;;;7.20;99.90;;;7.20;85.26;102375.28;5207056;28;20053;-72
2022/01/29 02:02:31;;;;;;;12.23;4.25;;;7.20;99.90;;;7.21;84.91;102377.06;5206399;28;20049;-73
2022/01/29 02:05:05;;;;;;;10.77;3.95;;;7.20;99.90;;;7.21;85.23;102364.09;5206600;28;20054;-72
2022/01/29 02:07:38;;;;;;;13.63;4.60;;;7.30;99.90;;;7.22;84.74;102346.84;5206547;28;20057;-73
2022/01/29 02:10:11;;;;;;;12.57;4.78;;;7.30;99.90;;;7.22;85.06;102357.22;5207100;28;20053;-71
2022/01/29 02:12:48;;;;;;;10.65;3.33;;;7.20;99.90;;;7.22;85.15;102350.34;5206560;28;20060;-72
2022/01/29 02:15:22;;;;;;;8.93;3.53;;;7.30;99.90;;;7.24;85.15;102340.09;5207414;28;20045;-73
2022/01/29 02:17:55;;;;;;;12.90;5.00;;;7.20;99.90;;;7.23;85.39;102331.38;5207414;28;20053;-72
2022/01/29 02:20:32;;;;;;;10.45;4.28;;;7.30;99.90;;;7.25;84.85;102326.34;5207898;28;20050;-72
2022/01/29 02:23:05;;;;;;;15.43;5.78;;;7.30;99.90;;;7.25;84.72;102310.78;5207050;28;20490;-72
2022/01/29 02:25:40;;;;;;;8.15;3.42;;;7.30;99.90;;;7.27;85.13;102304.88;5206908;28;20076;-72
2022/01/29 02:28:15;;;;;;;15.07;4.85;;;7.30;99.90;;;7.27;84.71;102310.06;5206893;28;20045;-72
2022/01/29 02:30:56;;;;;;;9.65;3.78;;;7.30;99.90;;;7.29;84.87;102308.47;5207927;28;20069;-73
2022/01/29 02:33:31;;;;;;;13.77;5.57;;;7.30;99.90;;;7.30;84.46;102294.75;5206360;28;20057;-73
2022/01/29 02:36:04;;;;;;;12.27;4.65;;;7.30;99.90;;;7.30;84.86;102292.16;5206519;28;20050;-72
2022/01/29 02:38:37;;;;;;;12.55;4.57;;;7.40;99.90;;;7.31;84.35;102275.78;5206583;28;20570;-72
2022/01/29 02:41:09;;;;;;;9.65;3.95;;;7.40;99.90;;;7.33;84.77;102275.91;5206529;28;20484;-72
2022/01/29 02:43:46;;;;;;;15.57;4.95;;;7.40;99.90;;;7.33;84.37;102274.19;5206063;28;20053;-72
2022/01/29 02:46:28;;;;;;;11.50;4.07;;;7.40;99.90;;;7.34;84.36;102268.22;5206409;28;20049;-73
2022/01/29 02:49:00;;;;;;;11.57;4.65;;;7.30;99.90;;;7.37;84.25;102249.38;5206056;28;20045;-72
2022/01/29 02:51:32;;;;;;;13.90;4.70;;;7.40;99.90;;;7.41;84.21;102250.50;5206723;28;20051;-72
2022/01/29 02:54:05;;;;;;;9.82;4.45;;;7.40;99.90;;;7.37;83.58;102266.63;5205705;28;20443;-72
2022/01/29 02:56:37;;;;;;;13.35;5.50;;;7.40;99.90;;;7.37;84.45;102258.84;5206179;28;20521;-73
2022/01/29 02:59:10;;;;;;;9.65;3.78;;;7.40;99.90;;;7.37;84.14;102244.19;5205838;28;20112;-73
2022/01/29 03:01:42;;;;;;;10.32;4.15;;;7.40;99.90;;;7.39;83.87;102249.50;5205867;28;20041;-72
2022/01/29 03:04:14;;;;;;;12.82;4.63;;;7.40;99.90;;;7.38;84.48;102235.63;5205338;28;20053;-73
2022/01/29 03:06:47;;;;;;;12.80;4.45;;;7.40;99.90;;;7.41;83.90;102246.19;5205686;28;20053;-72
2022/01/29 03:09:20;;;;;;;5.97;2.97;;;7.40;99.90;;;7.41;84.05;102250.50;5206599;28;20045;-73
2022/01/29 03:11:52;;;;;;;13.93;5.72;;;7.40;99.90;;;7.40;83.93;102239.22;5205583;28;20045;-73
2022/01/29 03:14:24;;;;;;;7.40;3.45;;;7.40;99.90;;;7.41;84.22;102234.91;5205124;28;20046;-73
2022/01/29 03:16:56;;;;;;;12.13;5.15;;;7.40;99.90;;;7.40;83.61;102225.34;5205645;28;20052;-72
2022/01/29 03:19:28;;;;;;;12.93;5.07;;;7.40;99.90;;;7.40;84.14;102222.75;5205669;28;20513;-72
2022/01/29 03:22:00;;;;;;;10.27;3.95;;;7.40;99.90;;;7.40;83.85;102215.84;5205797;28;20053;-73
2022/01/29 03:24:34;;;;;;;9.63;4.88;;;7.40;99.90;;;7.40;83.50;102207.19;5205009;28;20052;-73
2022/01/29 03:27:06;;;;;;;8.80;3.08;;;7.40;99.90;;;7.41;84.12;102211.56;5205338;28;20059;-72
2022/01/29 03:29:38;;;;;;;10.77;3.83;;;7.40;99.90;;;7.40;83.59;102207.19;5205656;28;20057;-72
2022/01/29 03:32:11;;;;;;;11.13;4.18;;;7.40;99.90;;;7.41;84.05;102214.16;5205169;28;20041;-73
2022/01/29 03:34:43;;;;;;;10.93;4.72;;;7.50;99.90;;;7.44;84.26;102215.28;5205017;28;20057;-73
2022/01/29 03:37:15;;;;;;;8.75;3.38;;;7.50;99.90;;;7.44;84.12;102206.59;5205318;28;20046;-73
2022/01/29 03:39:49;;;;;;;15.38;4.82;;;7.50;99.90;;;7.43;84.27;102212.56;5204932;28;20051;-72
2022/01/29 03:42:21;;;;;;;13.60;5.18;;;7.50;99.90;;;7.43;84.15;102208.28;5204897;28;20148;-73
2022/01/29 03:44:54;;;;;;;12.23;5.47;;;7.50;99.90;;;7.44;83.67;102214.41;5204902;28;20557;-72
2022/01/29 03:47:26;;;;;;;11.70;5.10;;;7.50;99.90;;;7.45;84.04;102211.00;5205088;28;20050;-72
2022/01/29 03:49:58;;;;;;;13.57;5.53;;;7.50;99.90;;;7.43;84.21;102208.28;5204999;28;20060;-72
2022/01/29 03:52:30;;;;;;;12.43;5.32;;;7.50;99.90;;;7.42;84.03;102210.78;5204792;28;20049;-73
2022/01/29 03:55:05;;;;;;;14.65;5.53;;;7.40;99.90;;;7.42;84.59;102210.78;5204778;28;20483;-72
2022/01/29 03:57:37;;;;;;;13.05;5.60;;;7.50;99.90;;;7.43;84.63;102202.19;5205339;28;20076;-73
2022/01/29 04:00:10;;;;;;;11.45;5.50;;;7.50;99.90;;;7.45;84.51;102195.44;5204586;28;20050;-72
2022/01/29 04:02:42;;;;;;;13.25;5.45;;;7.50;99.90;;;7.45;84.67;102196.34;5204819;28;20509;-73
2022/01/29 04:05:14;;;;;;;14.70;5.35;;;7.50;99.90;;;7.45;84.46;102185.94;5204586;28;20052;-72
2022/01/29 04:07:46;;;;;;;16.40;6.38;;;7.40;99.90;;;7.46;84.40;102187.75;5205847;28;20060;-73
2022/01/29 04:10:22;;;;;;;10.32;4.68;;;7.50;99.90;;;7.47;84.43;102194.72;5204630;28;20059;-72
2022/01/29 04:12:54;;;;;;;12.27;5.07;;;7.50;99.90;;;7.49;84.68;102187.03;5204799;28;20049;-73
2022/01/29 04:15:26;;;;;;;11.48;4.20;;;7.50;99.90;;;7.49;84.69;102181.84;5204200;28;20474;-72
2022/01/29 04:17:58;;;;;;;15.13;5.18;;;7.50;99.90;;;7.49;84.98;102185.34;5204723;28;20049;-72
2022/01/29 04:20:30;;;;;;;11.88;4.18;;;7.50;99.90;;;7.51;85.11;102186.38;5204870;28;20479;-72
2022/01/29 04:23:02;;;;;;;12.77;4.95;;;7.50;99.90;;;7.52;85.04;102179.50;5204976;28;20049;-72
2022/01/29 04:25:35;;;;;;;13.43;5.00;;;7.50;99.90;;;7.53;85.29;102176.09;5204808;28;20054;-73
2022/01/29 04:28:10;;;;;;;12.52;5.10;;;7.50;99.90;;;7.55;85.00;102171.91;5204791;28;20045;-72
2022/01/29 04:30:46;;;;;;;15.23;5.22;;;7.60;99.90;;;7.58;84.73;102167.84;5204638;28;20049;-72
2022/01/29 04:33:28;;;;;;;9.50;3.42;;;7.50;99.90;;;7.56;85.22;102168.50;5204925;28;20421;-73
2022/01/29 04:36:02;;;;;;;;;;;7.60;99.90;;;7.55;84.75;102156.34;5204503;28;20057;-72
2022/01/29 04:38:34;;;;;;;6.90;2.78;;;7.60;99.90;;;7.55;85.19;102146.84;5204745;28;19921;-72
2022/01/29 04:41:08;;;;;;;10.77;4.22;;;7.60;99.90;;;7.54;84.81;102155.44;5204932;28;20384;-73
2022/01/29 04:43:40;;;;;;;10.85;4.03;;;7.50;99.90;;;7.54;84.86;102149.34;5204593;28;20049;-73
2022/01/29 04:46:12;;;;;;;13.98;4.55;;;7.60;99.90;;;7.54;84.94;102144.16;5203849;28;20418;-74
2022/01/29 04:48:44;;;;;;;8.80;3.72;;;7.60;99.90;;;7.53;85.33;102142.38;5203537;28;20068;-73
2022/01/29 04:51:16;;;;;;;10.68;3.95;;;7.60;99.90;;;7.54;85.07;102137.25;5203720;28;20052;-72
2022/01/29 04:53:48;;;;;;;6.47;3.05;;;7.60;99.90;;;7.55;85.33;102145.94;5203927;28;20045;-72
2022/01/29 04:56:21;;;;;;;9.23;4.13;;;7.60;99.90;;;7.56;84.78;102142.56;5204532;28;20046;-73
2022/01/29 04:58:53;;;;;;;11.55;4.80;;;7.60;99.90;;;7.60;85.05;102142.88;5208181;28;20050;-72
2022/01/29 05:01:25;;;;;;;12.57;5.18;;;7.60;99.90;;;7.56;84.74;102143.50;5207552;28;20053;-73
2022/01/29 05:03:57;;;;;;;9.40;3.90;;;7.60;99.90;;;7.54;85.03;102144.16;5208559;28;20045;-74
2022/01/29 05:06:29;;;;;;;12.45;5.45;;;7.60;99.90;;;7.56;85.08;102142.56;5207869;28;20057;-72
2022/01/29 05:09:01;;;;;;;12.75;4.55;;;7.60;99.90;;;7.54;85.53;102145.06;5207887;28;20045;-72
2022/01/29 05:11:34;;;;;;;14.88;4.95;;;7.60;99.90;;;7.53;86.04;102147.56;5207964;28;20103;-72
2022/01/29 05:14:10;;;;;;;10.45;4.45;;;7.60;99.90;;;7.51;86.26;102139.66;5207200;28;20045;-72
2022/01/29 05:17:07;;;;;;;14.40;5.32;;;7.60;99.90;;;7.52;86.97;102137.97;5207032;28;20132;-72
2022/01/29 05:28:05;;;;;;;8.77;4.40;;;7.60;99.90;;;7.48;89.25;102138.53;5185734;28;20084;-72
2022/01/29 05:30:37;;;;;;;12.70;4.57;;;7.50;99.90;;;7.44;89.53;102140.06;5207281;28;20128;-73
2022/01/29 05:33:09;;;;;;;9.57;3.70;;;7.50;99.90;;;7.43;90.62;102135.63;5207046;28;20056;-73
2022/01/29 05:35:41;;;;;;;9.93;4.03;;;7.50;99.90;;;7.40;91.26;102134.53;5206410;28;20045;-72
2022/01/29 05:38:13;;;;;;;11.35;4.15;;;7.50;99.90;;;7.39;92.03;102127.56;5206840;28;20490;-72
2022/01/29 05:40:45;;;;;;;11.02;3.95;;;7.40;99.90;;;7.37;92.16;102126.53;5206533;28;20048;-72
2022/01/29 05:43:19;;;;;;;8.30;3.90;;;7.40;99.90;;;7.37;92.72;102118.75;5207123;28;20041;-73
2022/01/29 05:45:51;;;;;;;8.73;4.18;;;7.40;99.90;;;7.35;93.31;102122.13;5206024;28;20049;-73
2022/01/29 05:48:23;;;;;;;9.38;3.55;;;7.40;99.90;;;7.34;93.87;102115.16;5206604;28;20459;-73
2022/01/29 05:50:55;;;;;;;10.88;3.83;;;7.40;99.90;;;7.37;94.20;102109.28;5349601;22;20033;-70
2022/01/29 05:53:27;;;;;;;10.13;4.13;;;7.40;99.90;;;7.35;94.58;102110.84;5204783;28;20520;-71
2022/01/29 05:55:59;;;;;;;7.93;3.67;;;7.40;99.90;;;7.34;95.34;102107.38;5206146;28;20053;-71
2022/01/29 05:58:33;;;;;;;9.90;4.93;;;7.40;99.90;;;7.34;95.50;102103.88;5207070;28;20045;-71
2022/01/29 06:01:05;;;;;;;7.93;3.58;;;7.40;99.90;;;7.31;95.35;102101.97;5206932;28;20057;-70
2022/01/29 06:03:37;;;;;;;8.70;4.10;;;7.30;99.90;;;7.32;96.23;102098.59;5206976;28;20060;-71
2022/01/29 06:06:09;;;;;;;8.70;3.15;;;7.40;99.90;;;7.33;96.41;102100.38;5206265;28;20061;-72
2022/01/29 06:08:42;;;;;;;7.57;3.50;;;7.40;99.90;;;7.34;96.00;102099.59;5206143;28;20498;-71
2022/01/29 06:11:16;;;;;;;9.40;3.33;;;7.40;99.90;;;7.32;96.42;102096.00;5206899;28;20055;-71
2022/01/29 06:13:49;;;;;;;7.35;3.40;;;7.30;99.90;;;7.34;96.60;102096.09;5206267;28;20056;-71
2022/01/29 06:16:21;;;;;;;8.80;3.83;;;7.40;99.90;;;7.35;96.47;102101.38;5206454;28;20049;-71
2022/01/29 06:18:53;;;;;;;6.22;3.38;;;7.40;99.90;;;7.34;96.38;102089.22;5206328;28;20499;-71
2022/01/29 06:21:25;;;;;;;7.22;2.85;;;7.40;99.90;;;7.33;96.66;102095.19;5206436;28;20046;-71
2022/01/29 06:23:58;;;;;;;5.78;2.63;;;7.40;99.90;;;7.32;97.17;102090.81;5206096;28;20060;-71
2022/01/29 06:26:30;;;;;;;7.03;3.40;;;7.40;99.90;;;7.35;96.97;102090.09;5206390;28;20060;-71
2022/01/29 06:29:04;;;;;;;5.03;2.80;;;7.40;99.90;;;7.34;97.28;102080.53;5206311;28;20049;-71
2022/01/29 06:31:36;;;;;;;6.28;2.80;;;7.40;99.90;;;7.33;97.69;102077.03;5206354;28;20053;-71
2022/01/29 06:34:08;;;;;;;5.35;2.72;;;7.40;99.90;;;7.35;97.74;102074.53;5205965;28;20060;-70
2022/01/29 06:36:40;;;;;;;6.07;2.70;;;7.40;99.90;;;7.36;97.60;102073.75;5206327;28;20504;-70
2022/01/29 06:39:12;;;;;;;6.82;2.78;;;7.40;99.90;;;7.37;97.48;102077.22;5205962;28;20050;-71
2022/01/29 06:41:44;;;;;;;5.00;2.30;;;7.40;99.90;;;7.35;98.04;102070.25;5205950;28;20056;-73
2022/01/29 06:44:17;;;;;;;4.78;2.40;;;7.40;99.90;;;7.35;97.92;102070.25;5206008;28;20483;-71
2022/01/29 06:46:49;;;;;;;5.63;2.45;;;7.40;99.90;;;7.37;98.03;102072.97;5205645;28;20080;-71
2022/01/29 06:49:21;;;;;;;7.28;2.30;;;7.40;99.90;;;7.38;98.66;102066.09;5206103;28;20402;-70
2022/01/29 06:51:53;;;;;;;4.30;2.03;;;7.40;99.90;;;7.39;98.61;102065.28;5205627;28;20049;-69
2022/01/29 06:54:25;;;;;;;4.05;2.25;;;7.40;99.90;;;7.41;99.06;102059.41;5205592;28;20052;-71
2022/01/29 06:56:57;;;;;;;5.35;2.42;;;7.40;99.90;;;7.40;98.91;102075.75;5205967;28;20057;-71
2022/01/29 06:59:31;;;;;;;3.38;1.83;;;7.40;99.90;;;7.40;99.01;102072.28;5205811;28;20048;-71
2022/01/29 07:02:03;;;;;;;4.65;2.00;;;7.40;99.90;;;7.41;99.21;102058.50;5206236;28;20136;-73
2022/01/29 07:04:35;;;;;;;3.97;1.75;;;7.40;99.90;;;7.42;99.26;102061.19;5205437;28;20053;-71
2022/01/29 07:07:07;;;;;;;4.93;2.03;;;7.40;99.90;;;7.43;99.78;102068.16;5205917;28;20505;-71
2022/01/29 07:09:39;;;;;;;3.03;1.85;;;7.50;99.90;;;7.44;99.97;102050.94;5205794;28;20051;-73
2022/01/29 07:12:12;;;;;;;5.82;1.92;;;7.40;99.90;;;7.47;99.52;102058.91;5205757;28;20429;-71
2022/01/29 07:14:49;;;;;;;4.55;2.00;;;7.50;99.90;;;7.48;99.46;102052.91;5205130;28;20093;-70
2022/01/29 07:17:22;;;;;;;2.88;1.70;;;7.50;99.90;;;7.52;99.38;102052.34;5205651;28;20099;-71
2022/01/29 07:19:55;;;;;;;3.42;2.05;;;7.50;99.90;;;7.54;99.23;102058.53;5204843;28;20045;-70
2022/01/29 07:22:27;;;;;;;3.85;1.75;;;7.60;99.90;;;7.53;99.97;102056.72;5205301;28;20108;-70
2022/01/29 07:24:59;;;;;;;3.83;1.85;;;7.50;99.90;;;7.51;99.72;102050.53;5205109;28;20081;-71
2022/01/29 07:27:31;;;;;;;3.95;1.83;;;7.50;99.90;;;7.51;100.00;102050.53;5205366;28;20046;-72
2022/01/29 07:30:06;;;;;;;2.53;1.52;;;7.50;99.90;;;7.53;100.00;102051.53;5205547;28;20475;-71
2022/01/29 07:32:44;;;;;;;3.55;1.65;;;7.60;99.90;;;7.53;99.95;102044.66;5205690;28;20053;-70
2022/01/29 07:35:16;;;;;;;2.60;1.60;;;7.60;99.90;;;7.57;100.00;102040.56;5205175;28;20055;-70
2022/01/29 07:37:48;;;;;;;3.38;1.30;;;7.60;99.90;;;7.59;100.00;102041.56;5205344;28;20418;-71
2022/01/29 07:40:20;;;;;;;4.53;1.75;;;7.60;99.90;;;7.61;99.47;102042.56;5205521;28;20042;-71
2022/01/29 07:42:52;;;;;;;3.53;2.00;;;7.60;99.90;;;7.61;99.74;102029.59;5205196;28;20052;-72
2022/01/29 07:45:26;;;;;;;3.83;1.80;;;7.60;99.90;;;7.63;99.85;102020.22;5204650;28;20045;-71
2022/01/29 07:47:58;;;;;;;2.83;1.80;;;7.60;99.90;;;7.66;99.58;102029.91;5205539;28;20053;-71
2022/01/29 07:50:30;;;;;;;1.60;1.27;;;7.70;99.90;;;7.67;99.56;102035.19;5205111;28;20049;-71
2022/01/29 07:53:02;;;;;;;1.77;1.45;;;7.60;99.90;;;7.70;99.07;102029.31;5205274;28;20071;-71
2022/01/29 07:55:34;;;;;;;1.85;1.40;;;7.70;99.90;;;7.69;98.79;102028.38;5204464;28;20081;-71
2022/01/29 07:58:06;;;;;;;2.00;1.33;;;7.70;99.90;;;7.70;98.65;102031.91;5205267;28;20056;-73
2022/01/29 08:00:39;;;;;;;1.83;1.27;;;7.70;99.90;;;7.71;98.95;102028.50;5204993;28;20140;-71
2022/01/29 08:03:11;;;;;;;1.10;1.05;;;7.70;99.90;;;7.71;98.76;102032.00;5204963;28;20500;-71
2022/01/29 08:05:43;;;;;;;2.65;1.38;;;7.70;99.90;;;7.74;99.12;102034.78;5205044;28;20045;-71
2022/01/29 08:08:15;;;;;;;1.60;1.38;;;7.80;99.90;;;7.76;98.98;102032.28;5205266;28;20055;-70
2022/01/29 08:10:47;;;;;;;1.65;1.25;;;7.70;99.90;;;7.78;98.64;102030.72;5204936;28;20410;-71
2022/01/29 08:13:19;;;;;;;3.67;1.50;;;7.70;99.90;;;7.82;99.05;102032.69;5205054;28;20046;-71
2022/01/29 08:15:53;;;;;;;2.28;1.50;;;7.80;99.90;;;7.83;98.74;102035.41;5206017;28;20479;-70
2022/01/29 08:18:25;;;;;;;2.92;1.42;;;7.80;99.90;;;7.86;98.54;102040.78;5205159;28;20041;-71
2022/01/29 08:20:57;;;;;;;3.15;1.92;;;7.80;99.90;;;7.89;98.62;102034.91;5205422;28;20049;-72
2022/01/29 08:23:29;;;;;;;2.75;1.42;;;7.80;99.90;;;7.91;99.02;102035.91;5205330;28;20053;-71
2022/01/29 08:26:01;;;;;;;2.35;1.60;;;7.90;99.90;;;7.94;98.62;102033.50;5203958;28;20486;-73
2022/01/29 08:28:33;;;;;;;1.30;1.20;;;7.90;99.90;;;7.95;98.45;102030.09;5204046;28;20041;-72
2022/01/29 08:31:07;;;;;;;2.17;1.60;;;7.90;99.90;;;7.97;98.57;102035.41;5204304;28;20513;-71
2022/01/29 08:33:39;;;;;;;4.22;1.70;;;7.90;99.90;;;8.01;98.49;102029.59;5207692;28;20049;-69
2022/01/29 08:36:11;;;;;;;2.33;1.60;;;7.90;99.90;;;8.04;98.59;102035.00;5206546;28;20042;-71
2022/01/29 08:38:44;;;;;;;2.33;1.45;;;8.00;99.90;;;8.07;98.38;102030.00;5206980;28;20765;-69
2022/01/29 08:41:16;;;;;;;2.10;1.27;;;8.00;99.90;;;8.11;98.62;102024.19;5207351;28;20049;-69
2022/01/29 08:43:48;;;;;;;2.03;1.50;;;8.00;99.90;;;9.31;100.00;102023.00;5208687;28;20053;-66
2022/01/29 08:46:21;;;;;;;2.17;1.50;;;9.00;99.90;;;10.57;98.66;102020.66;5209124;28;20508;-67
2022/01/29 08:48:53;;;;;;;4.05;1.20;;;10.40;99.90;;;11.63;86.23;102012.28;5208839;28;20046;-69
2022/01/29 08:51:25;;;;;;;2.75;1.60;;;11.70;99.90;;;11.79;81.20;102013.03;5208263;28;20045;-70
2022/01/29 08:53:57;;;;;;;1.77;1.40;;;12.10;99.90;;;11.36;79.79;102006.56;5208215;28;20049;-70
2022/01/29 08:56:29;;;;;;;2.38;1.42;;;11.90;99.90;;;10.88;80.10;102015.34;5208548;28;20052;-71
2022/01/29 08:59:02;;;;;;;2.67;1.63;;;11.40;99.90;;;10.46;81.49;102012.25;5208433;28;20072;-69
2022/01/29 09:01:35;;;;;;;2.08;1.75;;;11.00;99.90;;;10.13;82.54;102007.75;5208198;28;20045;-69
2022/01/29 09:04:08;;;;;;;1.77;1.25;;;10.50;99.90;;;9.86;83.82;102017.50;5208327;28;20421;-70
2022/01/29 09:06:39;;;;;;;2.78;1.73;;;10.20;99.90;;;9.64;84.81;102004.94;5208185;28;20045;-70
2022/01/29 09:09:12;;;;;;;3.10;1.88;;;9.90;99.90;;;9.49;85.63;102005.88;5208108;28;20060;-69
2022/01/29 09:11:43;;;;;;;3.45;1.90;;;9.70;99.90;;;9.37;86.22;102010.34;5208018;28;20096;-69
2022/01/29 09:14:15;;;;;;;3.15;1.95;;;9.50;99.90;;;9.28;87.06;102012.41;5208203;28;20053;-68
2022/01/29 09:16:49;;;;;;;1.98;1.70;;;9.40;99.90;;;9.21;87.48;102002.47;5208094;28;20601;-69
2022/01/29 09:19:21;;;;;;;3.80;1.65;;;9.30;99.90;;;9.27;88.84;101997.63;5207992;28;20049;-71
2022/01/29 09:21:53;;;;;;;3.25;1.65;;;9.30;99.90;;;9.23;88.57;101988.72;5207788;28;20059;-70
2022/01/29 09:24:25;;;;;;;2.75;1.65;;;9.30;99.90;;;9.20;88.80;101985.94;5207209;28;20045;-71
2022/01/29 09:26:57;;;;;;;2.13;1.80;;;9.30;99.90;;;9.12;88.83;101976.78;5207502;28;20049;-69
2022/01/29 09:29:29;;;;;;;3.13;1.90;;;9.20;99.90;;;9.07;89.25;101973.03;5208011;28;20068;-70
2022/01/29 09:32:04;;;;;;;2.95;1.77;;;9.10;99.90;;;9.05;89.54;101979.81;5207885;28;20049;-71
2022/01/29 09:34:36;;;;;;;3.83;2.15;;;9.10;99.90;;;9.04;89.74;101966.72;5207536;28;20059;-71
2022/01/29 09:37:08;;;;;;;3.38;2.00;;;9.10;99.90;;;9.03;89.90;101962.34;5207968;28;20049;-71
2022/01/29 09:39:42;;;;;;;1.88;1.52;;;9.00;99.90;;;9.02;90.28;101964.03;5208200;28;20050;-71
2022/01/29 09:42:15;;;;;;;2.13;1.80;;;9.00;99.90;;;9.04;90.09;101964.13;5207757;28;20053;-72
2022/01/29 09:44:51;;;;;;;1.63;1.52;;;9.00;99.90;;;9.05;90.15;101963.31;5206326;28;20107;-70
2022/01/29 09:47:25;;;;;;;3.78;1.20;;;9.00;99.90;;;9.07;90.31;101961.72;5207944;28;20494;-70
2022/01/29 09:49:58;;;;;;;1.77;1.10;;;9.00;99.90;;;9.10;90.08;101957.59;5207782;28;20612;-69
2022/01/29 09:52:30;;;;;;;1.00;0.90;;;9.00;99.90;;;9.14;89.95;101958.69;5207831;28;20401;-70
2022/01/29 09:55:02;;;;;;;2.75;1.23;;;9.00;99.90;;;9.31;91.84;101954.44;5207330;28;20056;-69
2022/01/29 09:57:35;;;;;;;3.15;2.22;;;9.20;99.90;;;9.37;91.06;101952.19;5206929;28;20054;-70
2022/01/29 10:00:10;;;;;;;2.00;1.58;;;9.30;99.90;;;9.39;90.22;101946.28;5207767;28;20049;-70
2022/01/29 10:02:44;;;;;;;3.65;1.67;;;9.30;99.90;;;9.40;89.83;101947.19;5207834;28;20055;-70
2022/01/29 10:05:16;;;;;;;2.05;1.52;;;9.30;99.90;;;9.42;89.42;101954.25;5207413;28;20050;-70
2022/01/29 10:08:01;;;;;;;3.22;1.77;;;9.30;99.90;;;9.40;89.41;101945.47;5207506;28;20053;-71
2022/01/29 10:10:39;;;;;;;2.05;1.85;;;9.30;99.90;;;9.45;89.32;101946.66;5207840;28;20049;-69
2022/01/29 10:13:30;;;;;;;3.00;1.52;;;9.30;99.90;;;9.49;89.09;101948.59;5207469;28;20045;-69
2022/01/29 10:16:14;;;;;;;2.42;1.23;;;9.40;99.90;;;9.51;88.93;101946.97;5207354;28;20457;-70
2022/01/29 10:19:00;;;;;;;1.50;1.40;;;9.40;99.90;;;9.50;88.91;101955.59;5207378;28;20063;-70
2022/01/29 10:21:35;;;;;;;1.55;1.40;;;9.40;99.90;;;9.49;89.04;101940.78;5207416;28;20053;-69
2022/01/29 10:24:09;;;;;;;3.15;1.30;;;9.40;99.90;;;9.51;89.10;101941.75;5207449;28;20060;-71
2022/01/29 10:26:44;;;;;;;1.13;0.98;;;9.40;99.90;;;9.56;89.41;101938.53;5206887;28;20509;-71
2022/01/29 10:29:19;;;;;;;2.20;1.23;;;9.40;99.90;;;9.58;89.27;101931.69;5207213;28;20052;-73
2022/01/29 10:31:53;;;;;;;2.42;1.45;;;9.50;99.90;;;9.59;89.37;101942.22;5207327;28;20056;-71
2022/01/29 10:34:30;;;;;;;2.63;1.60;;;9.50;99.90;;;9.61;89.08;101943.19;5207123;28;20049;-70
2022/01/29 10:37:18;;;;;;;3.50;1.45;;;9.50;99.90;;;9.67;89.26;101937.44;5207664;28;20063;-69
2022/01/29 10:39:53;;;;;;;1.98;1.33;;;9.50;99.90;;;9.71;89.14;101935.09;5207142;28;20049;-69
2022/01/29 10:42:30;;;;;;;1.50;1.30;;;9.60;99.90;;;9.73;89.06;101927.38;5207043;28;20045;-71
2022/01/29 10:45:05;;;;;;;1.48;1.10;;;9.60;99.90;;;9.77;88.90;101929.31;5206649;28;20053;-71
2022/01/29 10:47:55;;;;;;;;;;;9.60;99.90;;;9.80;88.59;101934.72;5207578;28;20049;-69
2022/01/29 10:50:28;;;;;;;1.80;1.02;;;9.60;99.90;;;9.83;88.31;101932.28;5206794;28;19927;-71
2022/01/29 10:53:25;;;;;;;1.40;1.13;;;9.70;99.90;;;9.86;88.06;101923.75;5207185;28;20049;-69
2022/01/29 10:56:03;;;;;;;1.17;1.00;;;9.70;99.90;;;9.90;87.52;101916.16;5206062;28;20049;-71